createdAt,value
2018-06-02T00:02:14.183Z,72.91
2018-06-02T00:04:42.582Z,72.71
2018-06-02T00:07:11.001Z,72.80
2018-06-02T00:09:39.377Z,72.67
2018-06-02T00:12:07.948Z,72.24
2018-06-02T00:14:36.323Z,71.96
2018-06-02T00:17:04.890Z,72.26
2018-06-02T00:19:33.296Z,72.48
2018-06-02T00:22:01.670Z,72.25
2018-06-02T00:24:30.093Z,72.37
2018-06-02T00:26:58.460Z,72.51
2018-06-02T00:29:26.837Z,72.72
2018-06-02T00:31:55.220Z,72.87
2018-06-02T00:34:23.601Z,72.93
2018-06-02T00:36:51.988Z,72.99
2018-06-02T00:39:20.466Z,72.71
2018-06-02T00:41:48.848Z,72.66
2018-06-02T00:44:17.226Z,72.74
2018-06-02T00:46:45.598Z,72.92
2018-06-02T00:49:14.032Z,73.20
2018-06-02T00:51:42.413Z,73.02
2018-06-02T00:54:10.488Z,73.21
2018-06-02T00:56:38.871Z,73.42
2018-06-02T00:59:07.244Z,73.35
2018-06-02T01:01:35.705Z,73.41
2018-06-02T01:04:04.076Z,73.19
2018-06-02T01:06:32.526Z,72.84
2018-06-02T01:09:00.906Z,72.84
2018-06-02T01:11:29.057Z,72.71
2018-06-02T01:13:57.469Z,72.43
2018-06-02T01:16:25.854Z,72.10
2018-06-02T01:18:54.231Z,72.17
2018-06-02T01:21:22.621Z,72.12
2018-06-02T01:23:51.038Z,72.46
2018-06-02T01:26:19.423Z,72.41
2018-06-02T01:28:47.852Z,72.42
2018-06-02T01:31:16.237Z,72.39
2018-06-02T01:33:44.610Z,72.04
2018-06-02T01:36:12.993Z,71.80
2018-06-02T01:38:41.366Z,71.70
2018-06-02T01:41:09.770Z,71.67
2018-06-02T01:43:39.792Z,71.50
2018-06-02T01:46:08.179Z,71.65
2018-06-02T01:48:36.558Z,71.69
2018-06-02T01:51:04.961Z,71.36
2018-06-02T01:53:33.341Z,71.02
2018-06-02T01:56:01.715Z,71.09
2018-06-02T01:58:30.098Z,70.46
2018-06-02T02:00:58.474Z,70.22
2018-06-02T02:03:26.865Z,69.66
2018-06-02T02:05:55.247Z,69.36
2018-06-02T02:08:23.615Z,69.02
2018-06-02T02:10:52.017Z,69.00
2018-06-02T02:13:20.381Z,68.91
2018-06-02T02:15:48.757Z,69.06
2018-06-02T02:18:17.135Z,69.32
2018-06-02T02:20:45.703Z,69.70
2018-06-02T02:23:14.090Z,69.94
2018-06-02T02:25:42.476Z,70.00
2018-06-02T02:28:10.873Z,70.24
2018-06-02T02:30:39.255Z,70.41
2018-06-02T02:33:07.809Z,70.52
2018-06-02T02:35:36.241Z,70.56
2018-06-02T02:38:04.359Z,70.42
2018-06-02T02:40:32.731Z,70.17
2018-06-02T02:43:01.107Z,70.21
2018-06-02T02:45:29.478Z,69.89
2018-06-02T02:47:57.850Z,69.79
2018-06-02T02:50:26.234Z,69.51
2018-06-02T02:52:54.610Z,69.50
2018-06-02T02:55:23.015Z,69.39
2018-06-02T02:57:51.393Z,69.38
2018-06-02T03:00:19.765Z,69.24
2018-06-02T03:02:48.146Z,69.30
2018-06-02T03:05:16.541Z,69.38
2018-06-02T03:07:44.941Z,69.50
2018-06-02T03:10:13.394Z,69.48
2018-06-02T03:12:41.763Z,69.25
2018-06-02T03:15:10.264Z,69.31
2018-06-02T03:17:38.696Z,69.48
2018-06-02T03:20:07.253Z,69.45
2018-06-02T03:22:35.633Z,69.30
2018-06-02T03:25:04.022Z,69.20
2018-06-02T03:27:32.430Z,68.98
2018-06-02T03:30:00.796Z,68.99
2018-06-02T03:32:29.427Z,68.88
2018-06-02T03:34:57.829Z,68.54
2018-06-02T03:37:26.202Z,68.32
2018-06-02T03:39:54.584Z,68.16
2018-06-02T03:42:22.961Z,67.83
2018-06-02T03:44:51.365Z,67.98
2018-06-02T03:47:19.742Z,67.96
2018-06-02T03:49:48.147Z,67.81
2018-06-02T03:52:16.526Z,68.05
2018-06-02T03:54:44.917Z,67.62
2018-06-02T03:57:13.286Z,67.67
2018-06-02T03:59:41.657Z,67.46
2018-06-02T04:02:10.036Z,66.83
2018-06-02T04:04:38.429Z,66.55
2018-06-02T04:07:06.830Z,66.37
2018-06-02T04:09:35.237Z,66.10
2018-06-02T04:12:03.624Z,65.26
2018-06-02T04:14:32.010Z,65.13
2018-06-02T04:17:00.407Z,64.82
2018-06-02T04:19:28.795Z,64.49
2018-06-02T04:21:57.165Z,64.52
2018-06-02T04:24:25.543Z,64.11
2018-06-02T04:26:53.922Z,64.25
2018-06-02T04:29:22.292Z,64.02
2018-06-02T04:31:50.718Z,63.92
2018-06-02T04:34:19.100Z,63.71
2018-06-02T04:36:47.490Z,63.24
2018-06-02T04:39:15.889Z,63.24
2018-06-02T04:41:44.276Z,62.94
2018-06-02T04:44:12.665Z,62.93
2018-06-02T04:46:41.048Z,62.92
2018-06-02T04:49:09.451Z,62.51
2018-06-02T04:51:37.849Z,62.29
2018-06-02T04:54:06.240Z,62.64
2018-06-02T04:56:34.621Z,62.45
2018-06-02T04:59:02.999Z,62.50
2018-06-02T05:01:31.414Z,62.07
2018-06-02T05:03:59.797Z,61.60
2018-06-02T05:06:28.170Z,61.23
2018-06-02T05:08:56.551Z,61.56
2018-06-02T05:11:24.927Z,61.44
2018-06-02T05:13:53.295Z,60.92
2018-06-02T05:16:21.664Z,60.47
2018-06-02T05:18:50.061Z,60.13
2018-06-02T05:21:18.455Z,59.86
2018-06-02T05:23:46.826Z,59.79
2018-06-02T05:26:15.238Z,59.62
2018-06-02T05:28:43.651Z,59.73
2018-06-02T05:31:12.021Z,59.17
2018-06-02T05:33:40.420Z,58.75
2018-06-02T05:36:08.820Z,58.89
2018-06-02T05:38:37.196Z,58.52
2018-06-02T05:41:05.573Z,58.45
2018-06-02T05:43:33.965Z,58.75
2018-06-02T05:46:02.425Z,59.20
2018-06-02T05:48:30.945Z,59.18
2018-06-02T05:50:59.328Z,58.99
2018-06-02T05:53:27.721Z,59.00
2018-06-02T05:55:56.098Z,59.36
2018-06-02T05:58:24.485Z,59.24
2018-06-02T06:00:52.860Z,59.24
2018-06-02T06:03:21.233Z,59.63
2018-06-02T06:05:49.625Z,59.48
2018-06-02T06:08:18.009Z,59.41
2018-06-02T06:10:46.381Z,59.27
2018-06-02T06:13:14.759Z,59.09
2018-06-02T06:15:43.135Z,58.88
2018-06-02T06:18:11.517Z,58.49
2018-06-02T06:20:39.897Z,58.28
2018-06-02T06:23:08.272Z,57.67
2018-06-02T06:25:36.657Z,57.26
2018-06-02T06:28:05.569Z,57.06
2018-06-02T06:30:34.188Z,57.34
2018-06-02T06:33:02.677Z,57.51
2018-06-02T06:35:31.168Z,57.34
2018-06-02T06:37:59.537Z,57.39
2018-06-02T06:40:27.925Z,57.54
2018-06-02T06:42:56.335Z,57.43
2018-06-02T06:45:24.988Z,57.50
2018-06-02T06:47:53.376Z,58.34
2018-06-02T06:50:21.753Z,57.87
2018-06-02T06:52:50.151Z,57.74
2018-06-02T06:55:18.708Z,57.45
2018-06-02T06:57:47.196Z,57.52
2018-06-02T07:00:15.731Z,57.41
2018-06-02T07:02:44.107Z,57.36
2018-06-02T07:05:12.502Z,57.03
2018-06-02T07:07:40.876Z,57.14
2018-06-02T07:10:09.282Z,56.69
2018-06-02T07:12:37.652Z,57.29
2018-06-02T07:15:06.080Z,56.64
2018-06-02T07:17:34.459Z,56.34
2018-06-02T07:20:02.846Z,55.73
2018-06-02T07:22:31.225Z,55.54
2018-06-02T07:24:59.605Z,55.92
2018-06-02T07:27:28.019Z,55.22
2018-06-02T07:29:56.571Z,55.23
2018-06-02T07:32:24.960Z,54.96
2018-06-02T07:34:53.362Z,55.02
2018-06-02T07:37:21.741Z,55.27
2018-06-02T07:39:50.153Z,55.85
2018-06-02T07:42:18.537Z,55.82
2018-06-02T07:44:46.973Z,55.89
2018-06-02T07:47:15.360Z,56.12
2018-06-02T07:49:43.746Z,55.58
2018-06-02T07:52:12.320Z,55.80
2018-06-02T07:54:40.687Z,56.70
2018-06-02T07:57:09.057Z,56.80
2018-06-02T07:59:37.612Z,56.81
2018-06-02T08:02:05.999Z,57.17
2018-06-02T08:04:34.373Z,57.73
2018-06-02T08:07:02.820Z,58.05
2018-06-02T08:09:31.201Z,58.21
2018-06-02T08:11:59.609Z,57.74
2018-06-02T08:14:27.988Z,58.08
2018-06-02T08:16:56.358Z,58.40
2018-06-02T08:19:24.799Z,58.30
2018-06-02T08:21:53.189Z,58.38
2018-06-02T08:24:21.575Z,59.04
2018-06-02T08:26:49.995Z,59.38
2018-06-02T08:29:18.374Z,59.71
2018-06-02T08:31:46.749Z,59.33
2018-06-02T08:34:15.147Z,58.65
2018-06-02T08:36:43.551Z,58.52
2018-06-02T08:39:11.933Z,58.57
2018-06-02T08:41:40.308Z,58.65
2018-06-02T08:44:08.692Z,58.17
2018-06-02T08:46:37.092Z,57.94
2018-06-02T08:49:05.673Z,57.72
2018-06-02T08:51:34.043Z,57.20
2018-06-02T08:54:02.484Z,57.31
2018-06-02T08:56:31.012Z,57.32
2018-06-02T08:58:59.397Z,56.65
2018-06-02T09:01:27.781Z,57.03
2018-06-02T09:03:56.156Z,57.33
2018-06-02T09:06:24.527Z,56.78
2018-06-02T09:08:52.907Z,57.08
2018-06-02T09:11:21.295Z,56.32
2018-06-02T09:13:49.738Z,55.29
2018-06-02T09:16:18.138Z,55.55
2018-06-02T09:18:46.524Z,54.94
2018-06-02T09:21:14.933Z,54.84
2018-06-02T09:23:43.317Z,54.56
2018-06-02T09:26:11.706Z,53.97
2018-06-02T09:28:40.141Z,53.40
2018-06-02T09:31:08.532Z,52.78
2018-06-02T09:33:36.909Z,53.95
2018-06-02T09:36:04.724Z,52.46
2018-06-02T09:38:33.109Z,51.74
2018-06-02T09:41:01.481Z,52.06
2018-06-02T09:43:29.875Z,51.16
2018-06-02T09:45:58.264Z,50.92
2018-06-02T09:48:26.634Z,51.59
2018-06-02T09:50:55.205Z,50.65
2018-06-02T09:53:23.025Z,50.82
2018-06-02T09:55:51.446Z,51.36
2018-06-02T09:58:19.814Z,51.62
2018-06-02T10:00:48.174Z,51.36
2018-06-02T10:03:16.585Z,51.45
2018-06-02T10:05:44.985Z,51.17
2018-06-02T10:08:13.365Z,52.58
2018-06-02T10:10:41.747Z,52.06
2018-06-02T10:13:10.124Z,52.64
2018-06-02T10:15:38.174Z,52.42
2018-06-02T10:18:06.621Z,53.20
2018-06-02T10:20:35.012Z,54.06
2018-06-02T10:23:03.565Z,53.71
2018-06-02T10:25:31.956Z,52.58
2018-06-02T10:28:00.321Z,51.96
2018-06-02T10:30:28.908Z,52.50
2018-06-02T10:32:57.310Z,53.50
2018-06-02T10:35:25.736Z,52.41
2018-06-02T10:37:54.254Z,51.36
2018-06-02T10:40:22.709Z,51.60
2018-06-02T10:42:51.098Z,51.50
2018-06-02T10:45:19.513Z,52.73
2018-06-02T10:47:47.889Z,52.82
2018-06-02T10:50:16.320Z,53.14
2018-06-02T10:52:44.709Z,53.56
2018-06-02T10:55:13.160Z,52.56
2018-06-02T10:57:41.558Z,52.93
2018-06-02T11:00:09.965Z,53.88
2018-06-02T11:02:38.364Z,54.29
2018-06-02T11:05:06.786Z,53.91
2018-06-02T11:07:35.188Z,53.34
2018-06-02T11:10:03.341Z,53.60
2018-06-02T11:12:31.784Z,53.99
2018-06-02T11:15:00.165Z,53.96
2018-06-02T11:17:28.546Z,54.43
2018-06-02T11:19:56.941Z,52.32
2018-06-02T11:22:25.310Z,52.22
2018-06-02T11:24:53.935Z,52.93
2018-06-02T11:27:22.329Z,53.99
2018-06-02T11:29:50.698Z,53.57
2018-06-02T11:32:19.082Z,54.44
2018-06-02T11:34:47.443Z,54.45
2018-06-02T11:37:15.814Z,55.86
2018-06-02T11:39:44.192Z,54.90
2018-06-02T11:42:12.567Z,54.16
2018-06-02T11:44:41.650Z,53.21
2018-06-02T11:47:10.136Z,53.30
2018-06-02T11:49:38.552Z,51.58
2018-06-02T11:52:06.949Z,53.61
2018-06-02T11:54:35.325Z,53.82
2018-06-02T11:57:03.698Z,52.60
2018-06-02T11:59:32.088Z,54.45
2018-06-02T12:02:00.461Z,54.48
2018-06-02T12:04:29.051Z,53.39
2018-06-02T12:06:56.917Z,52.96
2018-06-02T12:09:25.470Z,53.63
2018-06-02T12:11:53.961Z,52.73
2018-06-02T12:14:22.543Z,53.00
2018-06-02T12:16:50.936Z,53.32
2018-06-02T12:19:19.314Z,54.22
2018-06-02T12:21:47.892Z,54.44
2018-06-02T12:24:16.276Z,54.55
2018-06-02T12:26:44.638Z,55.16
2018-06-02T12:29:13.018Z,55.80
2018-06-02T12:31:41.441Z,55.79
2018-06-02T12:34:09.828Z,56.24
2018-06-02T12:36:38.227Z,56.50
2018-06-02T12:39:06.049Z,56.24
2018-06-02T12:41:34.745Z,58.15
2018-06-02T12:44:03.278Z,58.41
2018-06-02T12:46:31.664Z,57.85
2018-06-02T12:49:00.042Z,58.31
2018-06-02T12:51:28.435Z,57.39
2018-06-02T12:53:56.817Z,57.11
2018-06-02T12:56:25.235Z,57.39
2018-06-02T12:58:53.612Z,56.49
2018-06-02T13:01:21.997Z,55.96
2018-06-02T13:03:50.394Z,56.09
2018-06-02T13:06:18.771Z,56.25
2018-06-02T13:08:47.147Z,56.50
2018-06-02T13:11:15.525Z,57.07
2018-06-02T13:13:43.888Z,56.90
2018-06-02T13:16:12.268Z,56.29
2018-06-02T13:18:40.649Z,56.28
2018-06-02T13:21:09.067Z,57.24
2018-06-02T13:23:37.614Z,57.02
2018-06-02T13:26:05.996Z,56.92
2018-06-02T13:28:34.370Z,58.03
2018-06-02T13:31:02.759Z,57.58
2018-06-02T13:33:31.132Z,56.52
2018-06-02T13:35:59.497Z,55.62
2018-06-02T13:38:27.881Z,56.37
2018-06-02T13:40:56.281Z,55.73
2018-06-02T13:43:24.673Z,56.06
2018-06-02T13:45:53.047Z,56.93
2018-06-02T13:48:21.521Z,56.47
2018-06-02T13:50:49.959Z,56.73
2018-06-02T13:53:18.352Z,56.90
2018-06-02T13:55:46.732Z,56.43
2018-06-02T13:58:15.110Z,57.04
2018-06-02T14:00:43.501Z,57.15
2018-06-02T14:03:11.868Z,57.22
2018-06-02T14:05:40.301Z,57.35
2018-06-02T14:08:08.741Z,58.41
2018-06-02T14:10:37.151Z,58.27
2018-06-02T14:13:05.287Z,58.48
2018-06-02T14:15:33.667Z,58.25
2018-06-02T14:18:02.108Z,58.09
2018-06-02T14:20:30.505Z,57.73
2018-06-02T14:22:58.875Z,58.17
2018-06-02T14:25:27.290Z,58.22
2018-06-02T14:27:55.830Z,58.72
2018-06-02T14:30:27.169Z,58.63
2018-06-02T14:32:55.629Z,58.59
2018-06-02T14:35:28.023Z,58.02
2018-06-02T14:37:56.411Z,56.83
2018-06-02T14:40:26.592Z,56.66
2018-06-02T14:42:55.054Z,56.11
2018-06-02T14:45:27.048Z,55.62
2018-06-02T14:47:56.613Z,55.38
2018-06-02T14:50:24.995Z,55.32
2018-06-02T14:52:53.373Z,55.30
2018-06-02T14:55:22.304Z,55.51
2018-06-02T14:57:50.703Z,55.58
2018-06-02T15:00:22.008Z,55.70
2018-06-02T15:02:50.394Z,55.59
2018-06-02T15:05:22.864Z,55.23
2018-06-02T15:07:51.239Z,54.18
2018-06-02T15:10:24.507Z,49.90
2018-06-02T15:12:52.889Z,49.42
2018-06-02T15:15:24.382Z,47.29
2018-06-02T15:17:52.761Z,46.00
2018-06-02T15:20:23.670Z,46.56
2018-06-02T15:22:52.093Z,45.32
2018-06-02T15:25:24.712Z,43.78
2018-06-02T15:27:53.171Z,43.98
2018-06-02T15:30:22.820Z,43.26
2018-06-02T15:32:51.255Z,43.81
2018-06-02T15:35:24.886Z,45.31
2018-06-02T15:37:53.284Z,46.16
2018-06-02T15:40:22.410Z,46.17
2018-06-02T15:42:50.792Z,47.07
2018-06-02T15:45:19.188Z,48.71
2018-06-02T15:47:47.647Z,49.13
2018-06-02T15:50:16.565Z,49.50
2018-06-02T15:52:46.131Z,49.96
2018-06-02T15:55:16.385Z,50.30
2018-06-02T15:57:46.338Z,50.18
2018-06-02T16:00:19.596Z,50.64
2018-06-02T16:02:47.993Z,51.28
2018-06-02T16:05:21.074Z,50.79
2018-06-02T16:07:49.452Z,49.52
2018-06-02T16:10:17.830Z,49.35
2018-06-02T16:12:46.214Z,49.00
2018-06-02T16:15:15.948Z,48.14
2018-06-02T16:17:44.328Z,46.46
2018-06-02T16:20:16.460Z,46.27
2018-06-02T16:22:44.842Z,47.36
2018-06-02T16:27:59.400Z,46.61
2018-06-02T16:30:28.439Z,45.06
2018-06-02T16:32:56.829Z,43.33
2018-06-02T16:35:25.214Z,42.70
2018-06-02T16:37:53.668Z,42.37
2018-06-02T16:40:22.043Z,43.28
2018-06-02T16:42:50.435Z,44.19
2018-06-02T16:47:55.908Z,45.68
2018-06-02T16:50:24.746Z,46.52
2018-06-02T16:52:53.115Z,47.21
2018-06-02T16:55:21.668Z,47.63
2018-06-02T16:57:50.037Z,47.03
2018-06-02T17:00:22.082Z,47.58
2018-06-02T17:02:50.448Z,48.05
2018-06-02T17:05:21.085Z,48.51
2018-06-02T17:07:49.461Z,49.33
2018-06-02T17:13:05.567Z,51.00
2018-06-02T17:15:48.969Z,51.64
2018-06-02T17:18:17.381Z,52.37
2018-06-02T17:21:00.758Z,52.42
2018-06-02T17:23:29.188Z,52.12
2018-06-02T17:25:57.562Z,51.51
2018-06-02T17:28:25.943Z,51.92
2018-06-02T17:30:54.399Z,52.30
2018-06-02T17:33:22.800Z,52.76
2018-06-02T17:35:51.183Z,53.31
2018-06-02T17:38:19.818Z,53.39
2018-06-02T17:40:48.191Z,53.63
2018-06-02T17:43:16.568Z,53.58
2018-06-02T17:45:45.030Z,53.63
2018-06-02T17:48:13.413Z,54.17
2018-06-02T17:50:49.991Z,54.81
2018-06-02T17:53:18.389Z,55.38
2018-06-02T17:56:01.195Z,55.35
2018-06-02T17:58:29.601Z,55.19
2018-06-02T18:00:57.997Z,54.72
2018-06-02T18:03:26.395Z,53.91
2018-06-02T18:05:54.824Z,53.51
2018-06-02T18:08:23.214Z,53.93
2018-06-02T18:10:51.738Z,53.63
2018-06-02T18:13:20.164Z,53.47
2018-06-02T18:15:48.756Z,53.09
2018-06-02T18:18:17.167Z,52.71
2018-06-02T18:20:45.537Z,53.04
2018-06-02T18:23:13.925Z,53.03
2018-06-02T18:25:42.307Z,53.03
2018-06-02T18:28:10.686Z,53.29
2018-06-02T18:30:40.192Z,53.63
2018-06-02T18:33:08.562Z,54.04
2018-06-02T18:35:36.945Z,54.35
2018-06-02T18:38:05.054Z,54.44
2018-06-02T18:40:33.453Z,54.19
2018-06-02T18:43:01.892Z,54.55
2018-06-02T18:45:30.417Z,54.90
2018-06-02T18:47:58.787Z,55.48
2018-06-02T18:50:36.177Z,55.57
2018-06-02T18:53:04.572Z,55.81
2018-06-02T18:55:37.328Z,56.34
2018-06-02T18:58:12.116Z,56.75
2018-06-02T19:00:40.511Z,57.01
2018-06-02T19:03:08.895Z,57.14
2018-06-02T19:05:37.342Z,57.59
2018-06-02T19:08:05.957Z,57.74
2018-06-02T19:10:34.323Z,57.90
2018-06-02T19:13:02.695Z,57.91
2018-06-02T19:15:39.217Z,57.67
2018-06-02T19:18:07.619Z,57.14
2018-06-02T19:23:11.662Z,56.53
2018-06-02T19:25:40.967Z,56.78
2018-06-02T19:28:09.336Z,56.82
2018-06-02T19:30:37.730Z,56.44
2018-06-02T19:33:06.103Z,56.04
2018-06-02T19:35:34.248Z,55.60
2018-06-02T19:38:02.609Z,54.81
2018-06-02T19:40:43.649Z,53.64
2018-06-02T19:43:12.178Z,53.42
2018-06-02T19:45:40.542Z,53.41
2018-06-02T19:48:08.953Z,53.57
2018-06-02T19:50:37.943Z,53.48
2018-06-02T19:53:06.316Z,53.52
2018-06-02T19:55:40.209Z,53.15
2018-06-02T19:58:08.575Z,53.41
2018-06-02T20:00:36.989Z,52.95
2018-06-02T20:03:05.373Z,52.57
2018-06-02T20:05:38.260Z,52.25
2018-06-02T20:08:06.632Z,52.59
2018-06-02T20:10:35.059Z,52.06
2018-06-02T20:13:03.437Z,52.05
2018-06-02T20:15:31.811Z,52.32
2018-06-02T20:18:00.190Z,52.14
2018-06-02T20:23:08.113Z,51.63
2018-06-02T20:25:45.773Z,51.85
2018-06-02T20:28:14.155Z,52.06
2018-06-02T20:30:43.349Z,51.91
2018-06-02T20:33:11.721Z,51.91
2018-06-02T20:35:40.104Z,51.85
2018-06-02T20:38:08.502Z,52.08
2018-06-02T20:43:21.841Z,52.23
2018-06-02T20:45:50.218Z,52.22
2018-06-02T20:48:18.590Z,52.33
2018-06-02T20:50:46.977Z,52.26
2018-06-02T20:53:15.372Z,52.26
2018-06-02T20:55:43.941Z,52.41
2018-06-02T20:58:12.331Z,52.35
2018-06-02T21:00:40.742Z,52.28
2018-06-02T21:03:09.125Z,52.25
2018-06-02T21:05:37.525Z,52.27
2018-06-02T21:08:05.899Z,52.23
2018-06-02T21:10:34.284Z,52.33
2018-06-02T21:13:02.662Z,52.22
2018-06-02T21:15:31.064Z,52.08
2018-06-02T21:17:59.496Z,52.11
2018-06-02T21:26:13.581Z,52.09
2018-06-02T21:28:42.060Z,52.05
2018-06-02T21:31:10.458Z,52.06
2018-06-02T21:33:38.838Z,52.02
2018-06-02T21:36:07.216Z,52.03
2018-06-02T21:38:35.591Z,51.99
2018-06-02T21:41:03.966Z,51.94
2018-06-02T21:43:32.350Z,52.00
2018-06-02T21:46:00.749Z,51.96
2018-06-02T21:48:29.113Z,52.02
2018-06-02T21:50:57.480Z,52.03
2018-06-02T21:53:25.881Z,52.14
2018-06-02T21:55:54.243Z,52.24
2018-06-02T21:58:22.611Z,52.31
2018-06-02T22:00:51.293Z,52.57
2018-06-02T22:03:19.672Z,52.66
2018-06-02T22:05:48.059Z,52.61
2018-06-02T22:08:16.098Z,52.66
2018-06-02T22:10:44.481Z,52.86
2018-06-02T22:13:12.863Z,53.18
2018-06-02T22:15:40.958Z,53.68
2018-06-02T22:18:09.344Z,54.27
2018-06-02T22:20:37.718Z,54.70
2018-06-02T22:23:06.093Z,55.14
2018-06-02T22:25:34.545Z,55.23
2018-06-02T22:28:02.918Z,55.38
2018-06-02T22:30:31.299Z,55.37
2018-06-02T22:32:59.689Z,55.43
2018-06-02T22:35:36.871Z,55.50
2018-06-02T22:38:05.241Z,55.33
2018-06-02T22:40:47.338Z,55.14
2018-06-02T22:43:15.727Z,54.93
2018-06-02T22:45:44.095Z,54.73
2018-06-02T22:48:12.473Z,54.67
2018-06-02T22:50:41.942Z,54.55
2018-06-02T22:53:10.038Z,54.43
2018-06-02T22:55:37.881Z,54.33
2018-06-02T22:58:06.261Z,54.17
2018-06-02T23:03:11.208Z,53.83
2018-06-02T23:05:39.324Z,53.59
2018-06-02T23:08:07.708Z,53.56
2018-06-02T23:10:35.779Z,53.39
2018-06-02T23:13:04.157Z,53.36
2018-06-02T23:15:32.536Z,53.59
2018-06-02T23:18:00.921Z,53.45
2018-06-02T23:20:30.203Z,53.32
2018-06-02T23:22:58.607Z,53.29
2018-06-02T23:25:26.976Z,53.63
2018-06-02T23:27:55.372Z,54.05
2018-06-02T23:30:32.302Z,54.25
2018-06-02T23:33:00.661Z,54.41
2018-06-02T23:35:35.486Z,54.55
2018-06-02T23:38:03.868Z,54.58
2018-06-02T23:40:35.603Z,54.49
2018-06-02T23:43:04.030Z,54.59
2018-06-02T23:45:36.480Z,54.69
2018-06-02T23:48:04.310Z,54.65
2018-06-02T23:50:34.218Z,54.72
2018-06-02T23:53:02.598Z,54.75
2018-06-02T23:55:33.225Z,54.70
2018-06-02T23:58:01.601Z,54.51
